createdAt,value
2023-01-27T06:18:25.849Z,2.49
2023-01-27T06:28:29.460Z,2.52
2023-01-27T06:38:25.909Z,2.51
2023-01-27T06:48:25.889Z,2.54
2023-01-27T06:58:25.889Z,2.51
2023-01-27T07:08:26.024Z,2.43
2023-01-27T07:18:26.113Z,2.39
2023-01-27T07:28:25.811Z,2.44
2023-01-27T07:38:25.911Z,2.46
2023-01-27T07:48:25.910Z,2.44
2023-01-27T07:58:26.032Z,2.44
2023-01-27T08:08:26.024Z,2.46
2023-01-27T08:18:25.959Z,2.40
2023-01-27T08:28:25.954Z,2.34
2023-01-27T08:38:25.997Z,2.30
2023-01-27T08:48:25.931Z,2.34
2023-01-27T08:58:25.948Z,2.38
2023-01-27T09:08:26.054Z,2.46
2023-01-27T09:18:25.815Z,2.57
2023-01-27T09:28:26.018Z,2.58
2023-01-27T09:38:26.157Z,2.60
2023-01-27T09:48:26.250Z,2.60
2023-01-27T09:58:26.232Z,2.61
2023-01-27T10:08:26.334Z,2.65
2023-01-27T10:18:26.293Z,2.61
2023-01-27T10:28:26.425Z,2.64
2023-01-27T10:38:26.192Z,2.60
2023-01-27T10:48:26.209Z,2.64
2023-01-27T10:58:26.107Z,2.59
2023-01-27T11:08:26.267Z,2.65
2023-01-27T11:18:26.190Z,2.65
2023-01-27T11:28:26.343Z,2.66
2023-01-27T11:38:27.332Z,2.68
2023-01-27T11:48:26.282Z,2.67
2023-01-27T11:58:26.274Z,2.61
2023-01-27T12:08:26.268Z,2.65
2023-01-27T12:18:26.325Z,2.64
2023-01-27T12:28:26.320Z,2.62
2023-01-27T12:38:26.299Z,2.63
2023-01-27T12:48:26.335Z,2.47
2023-01-27T12:58:26.282Z,2.41
2023-01-27T13:08:26.279Z,2.45
2023-01-27T13:18:26.336Z,2.34
2023-01-27T13:28:26.263Z,2.33
2023-01-27T13:38:26.435Z,2.33
2023-01-27T13:48:26.311Z,2.31
2023-01-27T13:58:26.245Z,2.28
2023-01-27T14:08:26.453Z,2.22
2023-01-27T14:18:26.326Z,2.21
2023-01-27T14:28:26.323Z,2.22
2023-01-27T14:38:26.327Z,2.26
2023-01-27T14:48:26.433Z,2.17
2023-01-27T14:58:26.364Z,2.18
2023-01-27T15:08:26.399Z,2.10
2023-01-27T15:18:26.481Z,2.04
2023-01-27T15:28:26.430Z,2.06
2023-01-27T15:38:26.495Z,1.94
2023-01-27T15:48:26.397Z,1.84
2023-01-27T15:58:26.419Z,1.71
2023-01-27T16:08:26.462Z,1.67
2023-01-27T16:18:26.618Z,1.55
2023-01-27T16:28:26.504Z,1.56
2023-01-27T16:38:26.473Z,1.41
2023-01-27T16:48:26.490Z,1.34
2023-01-27T16:58:39.759Z,1.33
2023-01-27T17:08:26.647Z,1.36
2023-01-27T17:18:26.542Z,1.40
2023-01-27T17:28:26.471Z,1.27
2023-01-27T17:38:26.511Z,1.18
2023-01-27T17:48:26.448Z,1.18
2023-01-27T17:58:26.587Z,1.20
2023-01-27T18:08:26.626Z,1.25
2023-01-27T18:18:26.610Z,1.18
2023-01-27T18:28:26.734Z,1.12
2023-01-27T18:38:26.631Z,1.23
2023-01-27T18:48:26.630Z,1.20
2023-01-27T18:58:26.671Z,1.11
2023-01-27T19:08:26.578Z,1.11
2023-01-27T19:18:26.630Z,1.03
